Wednesday, July 23, 2014, 7:58 AM EDT
Back to Local

KCXY, Harrisburg Capital City

Location: New Cumberland, PA, United States Lat: 40.217
Local Time: 7:58 AM EDT (11:58 GMT) Lon: -76.85
Time Zone: US/Eastern Elev: 347 ft

Show me the last for .
Show Decoded

2014-07-23 06:56 METAR KCXY 231056Z 00000KT 10SM BKN060 22/21 A3000 RMK AO2 SLP158 T02220206 =
2014-07-23 05:56 METAR KCXY 230956Z AUTO 00000KT 10SM CLR 22/20 A2998 RMK AO2 SLP150 T02170200 =
2014-07-23 04:56 METAR KCXY 230856Z AUTO 23003KT 10SM FEW065 23/20 A2999 RMK AO2 SLP152 T02280200
                 56016 =
2014-07-23 02:56 METAR KCXY 230656Z AUTO 30003KT 10SM OVC060 23/20 A3002 RMK AO2 SLP165 T02330200
                 =
2014-07-23 01:56 METAR KCXY 230556Z AUTO VRB04KT 10SM CLR 24/20 A3003 RMK AO2 SLP169 T02390200
                 10272 20239 56010 =
2014-07-23 00:56 METAR KCXY 230456Z AUTO 21007KT 10SM FEW080 24/20 A3004 RMK AO2 SLP171 T02440200
                 403060206 =
2014-07-22 22:56 METAR KCXY 230256Z AUTO 17008KT 10SM SCT110 25/20 A3007 RMK AO2 SLP179 T02500200
                 58000 =
2014-07-22 20:56 METAR KCXY 230056Z AUTO 16005KT 10SM CLR 26/21 A3007 RMK AO2 SLP179 T02610211 =
2014-07-22 19:56 METAR KCXY 222356Z 19006KT 10SM CLR 27/21 A3007 RMK AO2 SLP180 T02720206 10306
                 20272 53000 =
2014-07-22 18:56 METAR KCXY 222256Z 19008KT 10SM CLR 28/20 A3006 RMK AO2 SLP179 T02830200 =
2014-07-22 17:56 METAR KCXY 222156Z 20010KT 10SM CLR 29/20 A3006 RMK AO2 SLP178 T02940200 =
2014-07-22 16:56 METAR KCXY 222056Z 18010KT 10SM CLR 30/20 A3007 RMK AO2 SLP179 T03000200 58020 =
2014-07-22 15:56 METAR KCXY 221956Z 20011KT 10SM CLR 30/20 A3009 RMK AO2 SLP187 T03000200 =
2014-07-22 13:56 METAR KCXY 221756Z 21007KT 10SM FEW050 29/21 A3013 RMK AO2 SLP200 T02890206
                 10294 20228 58015 =
2014-07-22 12:56 METAR KCXY 221656Z 25005KT 10SM SCT028 BKN044 28/21 A3015 RMK AO2 SLP206
                 T02780206 =
2014-07-22 11:56 METAR KCXY 221556Z 24004KT 10SM SCT026 BKN037 26/21 A3016 RMK AO2 SLP211
                 T02610206 =
2014-07-22 10:56 METAR KCXY 221456Z 25006KT 10SM OVC025 26/20 A3017 RMK AO2 SLP215 T02560200
                 58007 =
2014-07-22 09:56 METAR KCXY 221356Z 21005KT 10SM FEW018 OVC025 24/21 A3018 RMK AO2 SLP218
                 T02440206 =
2014-07-22 08:56 METAR KCXY 221256Z 02005KT 10SM FEW018 OVC024 24/19 A3019 RMK AO2 SLP222
                 T02390194 =

Support USWX by starting your Amazon purchase here.